sensor_id;sensor_type;location;lat;lon;timestamp;P1;durP1;ratioP1;P2;durP2;ratioP2
25615;SDS011;13482;48.234;13.006;2023-05-07T00:02:25;1.85;;;1.08;;
25615;SDS011;13482;48.234;13.006;2023-05-07T00:04:53;1.25;;;0.90;;
25615;SDS011;13482;48.234;13.006;2023-05-07T00:07:21;1.52;;;1.00;;
25615;SDS011;13482;48.234;13.006;2023-05-07T00:09:48;2.65;;;1.05;;
25615;SDS011;13482;48.234;13.006;2023-05-07T00:12:15;2.47;;;1.23;;
25615;SDS011;13482;48.234;13.006;2023-05-07T00:14:42;1.50;;;1.10;;
25615;SDS011;13482;48.234;13.006;2023-05-07T00:17:09;1.25;;;0.98;;
25615;SDS011;13482;48.234;13.006;2023-05-07T00:19:36;3.35;;;1.00;;
25615;SDS011;13482;48.234;13.006;2023-05-07T00:22:03;1.70;;;1.10;;
25615;SDS011;13482;48.234;13.006;2023-05-07T00:24:31;2.67;;;1.08;;
25615;SDS011;13482;48.234;13.006;2023-05-07T00:26:58;3.08;;;1.33;;
25615;SDS011;13482;48.234;13.006;2023-05-07T00:29:25;1.70;;;1.30;;
25615;SDS011;13482;48.234;13.006;2023-05-07T00:31:52;1.98;;;1.45;;
25615;SDS011;13482;48.234;13.006;2023-05-07T00:34:21;2.58;;;1.20;;
25615;SDS011;13482;48.234;13.006;2023-05-07T00:36:48;2.65;;;1.48;;
25615;SDS011;13482;48.234;13.006;2023-05-07T00:39:15;2.33;;;1.45;;
25615;SDS011;13482;48.234;13.006;2023-05-07T00:41:42;2.58;;;1.27;;
25615;SDS011;13482;48.234;13.006;2023-05-07T00:44:10;2.53;;;1.33;;
25615;SDS011;13482;48.234;13.006;2023-05-07T00:46:37;2.30;;;1.25;;
25615;SDS011;13482;48.234;13.006;2023-05-07T00:49:04;2.30;;;1.00;;
25615;SDS011;13482;48.234;13.006;2023-05-07T00:51:32;2.22;;;1.20;;
25615;SDS011;13482;48.234;13.006;2023-05-07T00:54:01;3.28;;;1.17;;
25615;SDS011;13482;48.234;13.006;2023-05-07T00:56:29;1.83;;;1.15;;
25615;SDS011;13482;48.234;13.006;2023-05-07T00:58:57;2.22;;;1.02;;
25615;SDS011;13482;48.234;13.006;2023-05-07T01:01:25;2.80;;;1.15;;
25615;SDS011;13482;48.234;13.006;2023-05-07T01:03:53;1.90;;;0.88;;
25615;SDS011;13482;48.234;13.006;2023-05-07T01:06:20;2.45;;;1.30;;
25615;SDS011;13482;48.234;13.006;2023-05-07T01:08:50;2.38;;;1.52;;
25615;SDS011;13482;48.234;13.006;2023-05-07T01:11:19;2.58;;;1.60;;
25615;SDS011;13482;48.234;13.006;2023-05-07T01:13:48;2.42;;;1.50;;
25615;SDS011;13482;48.234;13.006;2023-05-07T01:16:16;2.00;;;1.60;;
25615;SDS011;13482;48.234;13.006;2023-05-07T01:18:43;1.90;;;1.40;;
25615;SDS011;13482;48.234;13.006;2023-05-07T01:21:11;2.58;;;1.40;;
25615;SDS011;13482;48.234;13.006;2023-05-07T01:23:42;2.50;;;1.42;;
25615;SDS011;13482;48.234;13.006;2023-05-07T01:26:09;1.63;;;1.30;;
25615;SDS011;13482;48.234;13.006;2023-05-07T01:28:36;2.05;;;1.27;;
25615;SDS011;13482;48.234;13.006;2023-05-07T01:31:03;1.92;;;1.30;;
25615;SDS011;13482;48.234;13.006;2023-05-07T01:33:33;2.38;;;1.40;;
25615;SDS011;13482;48.234;13.006;2023-05-07T01:36:02;2.97;;;1.52;;
25615;SDS011;13482;48.234;13.006;2023-05-07T01:38:32;1.92;;;1.30;;
25615;SDS011;13482;48.234;13.006;2023-05-07T01:41:01;2.28;;;1.40;;
25615;SDS011;13482;48.234;13.006;2023-05-07T01:43:29;1.75;;;1.08;;
25615;SDS011;13482;48.234;13.006;2023-05-07T01:45:57;2.70;;;1.38;;
25615;SDS011;13482;48.234;13.006;2023-05-07T01:48:26;2.05;;;1.15;;
25615;SDS011;13482;48.234;13.006;2023-05-07T01:50:54;1.83;;;1.20;;
25615;SDS011;13482;48.234;13.006;2023-05-07T01:55:57;1.85;;;1.35;;
25615;SDS011;13482;48.234;13.006;2023-05-07T01:58:24;1.95;;;1.30;;
25615;SDS011;13482;48.234;13.006;2023-05-07T02:00:52;2.20;;;1.02;;
25615;SDS011;13482;48.234;13.006;2023-05-07T02:03:19;1.77;;;1.17;;
25615;SDS011;13482;48.234;13.006;2023-05-07T02:05:47;2.20;;;1.13;;
25615;SDS011;13482;48.234;13.006;2023-05-07T02:08:14;1.70;;;1.00;;
25615;SDS011;13482;48.234;13.006;2023-05-07T02:10:41;1.95;;;1.40;;
25615;SDS011;13482;48.234;13.006;2023-05-07T02:13:08;1.70;;;1.17;;
25615;SDS011;13482;48.234;13.006;2023-05-07T02:15:35;1.98;;;1.20;;
25615;SDS011;13482;48.234;13.006;2023-05-07T02:18:07;2.17;;;1.33;;
25615;SDS011;13482;48.234;13.006;2023-05-07T02:20:38;2.10;;;1.40;;
25615;SDS011;13482;48.234;13.006;2023-05-07T02:23:05;1.52;;;1.20;;
25615;SDS011;13482;48.234;13.006;2023-05-07T02:25:32;1.50;;;1.10;;
25615;SDS011;13482;48.234;13.006;2023-05-07T02:27:59;1.75;;;1.27;;
25615;SDS011;13482;48.234;13.006;2023-05-07T02:30:26;1.80;;;1.27;;
25615;SDS011;13482;48.234;13.006;2023-05-07T02:32:53;1.88;;;1.33;;
25615;SDS011;13482;48.234;13.006;2023-05-07T02:35:21;1.30;;;1.13;;
25615;SDS011;13482;48.234;13.006;2023-05-07T02:37:48;2.83;;;1.13;;
25615;SDS011;13482;48.234;13.006;2023-05-07T02:40:15;2.95;;;1.15;;
25615;SDS011;13482;48.234;13.006;2023-05-07T02:42:42;2.20;;;1.27;;
25615;SDS011;13482;48.234;13.006;2023-05-07T02:45:09;2.35;;;1.50;;
25615;SDS011;13482;48.234;13.006;2023-05-07T02:47:37;1.73;;;1.20;;
25615;SDS011;13482;48.234;13.006;2023-05-07T02:50:04;2.40;;;1.20;;
25615;SDS011;13482;48.234;13.006;2023-05-07T02:52:32;2.17;;;1.25;;
25615;SDS011;13482;48.234;13.006;2023-05-07T02:54:59;1.75;;;1.25;;
25615;SDS011;13482;48.234;13.006;2023-05-07T02:57:27;1.40;;;1.10;;
25615;SDS011;13482;48.234;13.006;2023-05-07T02:59:54;1.75;;;1.23;;
25615;SDS011;13482;48.234;13.006;2023-05-07T03:02:21;3.28;;;1.40;;
25615;SDS011;13482;48.234;13.006;2023-05-07T03:04:48;2.13;;;1.40;;
25615;SDS011;13482;48.234;13.006;2023-05-07T03:07:15;2.33;;;1.52;;
25615;SDS011;13482;48.234;13.006;2023-05-07T03:09:42;2.38;;;1.30;;
25615;SDS011;13482;48.234;13.006;2023-05-07T03:12:11;1.83;;;1.35;;
25615;SDS011;13482;48.234;13.006;2023-05-07T03:14:38;2.53;;;1.50;;
25615;SDS011;13482;48.234;13.006;2023-05-07T03:17:05;1.92;;;1.50;;
25615;SDS011;13482;48.234;13.006;2023-05-07T03:19:32;3.78;;;1.35;;
25615;SDS011;13482;48.234;13.006;2023-05-07T03:21:59;2.92;;;1.50;;
25615;SDS011;13482;48.234;13.006;2023-05-07T03:24:27;2.13;;;1.48;;
25615;SDS011;13482;48.234;13.006;2023-05-07T03:26:54;2.15;;;1.58;;
25615;SDS011;13482;48.234;13.006;2023-05-07T03:29:21;2.60;;;1.73;;
25615;SDS011;13482;48.234;13.006;2023-05-07T03:31:48;2.05;;;1.45;;
25615;SDS011;13482;48.234;13.006;2023-05-07T03:34:16;2.35;;;1.50;;
25615;SDS011;13482;48.234;13.006;2023-05-07T03:36:48;2.10;;;1.60;;
25615;SDS011;13482;48.234;13.006;2023-05-07T03:39:16;2.00;;;1.20;;
25615;SDS011;13482;48.234;13.006;2023-05-07T03:41:43;2.60;;;1.20;;
25615;SDS011;13482;48.234;13.006;2023-05-07T03:44:10;1.38;;;1.08;;
25615;SDS011;13482;48.234;13.006;2023-05-07T03:46:37;1.42;;;1.17;;
25615;SDS011;13482;48.234;13.006;2023-05-07T03:49:05;1.73;;;1.27;;
25615;SDS011;13482;48.234;13.006;2023-05-07T03:51:32;2.28;;;1.50;;
25615;SDS011;13482;48.234;13.006;2023-05-07T03:54:00;2.05;;;1.50;;
25615;SDS011;13482;48.234;13.006;2023-05-07T03:56:27;2.78;;;1.20;;
25615;SDS011;13482;48.234;13.006;2023-05-07T03:58:54;2.20;;;1.30;;
25615;SDS011;13482;48.234;13.006;2023-05-07T04:01:21;1.90;;;1.20;;
25615;SDS011;13482;48.234;13.006;2023-05-07T04:03:49;1.50;;;1.30;;
25615;SDS011;13482;48.234;13.006;2023-05-07T04:06:16;2.17;;;1.52;;
25615;SDS011;13482;48.234;13.006;2023-05-07T04:08:43;1.85;;;1.40;;
25615;SDS011;13482;48.234;13.006;2023-05-07T04:11:10;2.35;;;1.25;;
25615;SDS011;13482;48.234;13.006;2023-05-07T04:13:38;1.60;;;1.25;;
25615;SDS011;13482;48.234;13.006;2023-05-07T04:16:05;1.70;;;1.38;;
25615;SDS011;13482;48.234;13.006;2023-05-07T04:18:32;2.03;;;1.33;;
25615;SDS011;13482;48.234;13.006;2023-05-07T04:20:59;2.00;;;1.50;;
25615;SDS011;13482;48.234;13.006;2023-05-07T04:23:26;2.10;;;1.70;;
25615;SDS011;13482;48.234;13.006;2023-05-07T04:25:54;2.70;;;1.40;;
25615;SDS011;13482;48.234;13.006;2023-05-07T04:28:21;2.75;;;1.60;;
25615;SDS011;13482;48.234;13.006;2023-05-07T04:30:48;1.70;;;1.38;;
25615;SDS011;13482;48.234;13.006;2023-05-07T04:33:15;2.13;;;1.52;;
25615;SDS011;13482;48.234;13.006;2023-05-07T04:35:46;2.45;;;1.48;;
25615;SDS011;13482;48.234;13.006;2023-05-07T04:38:13;2.35;;;1.30;;
25615;SDS011;13482;48.234;13.006;2023-05-07T04:40:40;2.60;;;1.30;;
25615;SDS011;13482;48.234;13.006;2023-05-07T04:43:07;2.30;;;1.30;;
25615;SDS011;13482;48.234;13.006;2023-05-07T04:45:35;2.15;;;1.30;;
25615;SDS011;13482;48.234;13.006;2023-05-07T04:48:03;2.72;;;1.58;;
25615;SDS011;13482;48.234;13.006;2023-05-07T04:50:30;1.48;;;1.17;;
25615;SDS011;13482;48.234;13.006;2023-05-07T04:52:58;2.20;;;1.33;;
25615;SDS011;13482;48.234;13.006;2023-05-07T04:55:25;1.90;;;1.40;;
25615;SDS011;13482;48.234;13.006;2023-05-07T04:57:53;4.40;;;1.40;;
25615;SDS011;13482;48.234;13.006;2023-05-07T05:00:20;2.35;;;1.40;;
25615;SDS011;13482;48.234;13.006;2023-05-07T05:02:48;1.70;;;1.20;;
25615;SDS011;13482;48.234;13.006;2023-05-07T05:05:15;2.60;;;1.50;;
25615;SDS011;13482;48.234;13.006;2023-05-07T05:07:43;1.95;;;1.50;;
25615;SDS011;13482;48.234;13.006;2023-05-07T05:10:10;2.75;;;1.42;;
25615;SDS011;13482;48.234;13.006;2023-05-07T05:12:38;1.70;;;1.40;;
25615;SDS011;13482;48.234;13.006;2023-05-07T05:15:05;2.83;;;1.67;;
25615;SDS011;13482;48.234;13.006;2023-05-07T05:17:34;2.28;;;1.45;;
25615;SDS011;13482;48.234;13.006;2023-05-07T05:20:01;2.60;;;1.90;;
25615;SDS011;13482;48.234;13.006;2023-05-07T05:22:28;2.33;;;1.80;;
25615;SDS011;13482;48.234;13.006;2023-05-07T05:24:57;2.15;;;1.77;;
25615;SDS011;13482;48.234;13.006;2023-05-07T05:27:24;2.90;;;2.05;;
25615;SDS011;13482;48.234;13.006;2023-05-07T05:29:51;2.95;;;2.15;;
25615;SDS011;13482;48.234;13.006;2023-05-07T05:32:18;3.67;;;2.17;;
25615;SDS011;13482;48.234;13.006;2023-05-07T05:34:45;2.95;;;2.35;;
25615;SDS011;13482;48.234;13.006;2023-05-07T05:37:12;2.90;;;2.40;;
25615;SDS011;13482;48.234;13.006;2023-05-07T05:39:40;2.63;;;2.38;;
25615;SDS011;13482;48.234;13.006;2023-05-07T05:42:07;2.92;;;2.55;;
25615;SDS011;13482;48.234;13.006;2023-05-07T05:44:34;3.35;;;2.50;;
25615;SDS011;13482;48.234;13.006;2023-05-07T05:47:02;3.50;;;2.67;;
25615;SDS011;13482;48.234;13.006;2023-05-07T05:49:29;4.18;;;3.63;;
25615;SDS011;13482;48.234;13.006;2023-05-07T05:51:56;4.20;;;3.55;;
25615;SDS011;13482;48.234;13.006;2023-05-07T05:54:24;3.92;;;3.35;;
25615;SDS011;13482;48.234;13.006;2023-05-07T05:56:51;4.93;;;3.17;;
25615;SDS011;13482;48.234;13.006;2023-05-07T05:59:18;3.88;;;3.05;;
25615;SDS011;13482;48.234;13.006;2023-05-07T06:01:45;3.80;;;3.20;;
25615;SDS011;13482;48.234;13.006;2023-05-07T06:04:13;3.90;;;2.97;;
25615;SDS011;13482;48.234;13.006;2023-05-07T06:06:41;3.40;;;2.70;;
25615;SDS011;13482;48.234;13.006;2023-05-07T06:09:08;4.30;;;2.72;;
25615;SDS011;13482;48.234;13.006;2023-05-07T06:11:35;3.25;;;2.60;;
25615;SDS011;13482;48.234;13.006;2023-05-07T06:14:02;3.25;;;2.47;;
25615;SDS011;13482;48.234;13.006;2023-05-07T06:16:29;2.88;;;2.22;;
25615;SDS011;13482;48.234;13.006;2023-05-07T06:18:56;3.17;;;2.45;;
25615;SDS011;13482;48.234;13.006;2023-05-07T06:21:23;2.92;;;1.98;;
25615;SDS011;13482;48.234;13.006;2023-05-07T06:23:50;2.58;;;2.22;;
25615;SDS011;13482;48.234;13.006;2023-05-07T06:26:18;2.53;;;2.00;;
25615;SDS011;13482;48.234;13.006;2023-05-07T06:28:46;2.47;;;2.00;;
25615;SDS011;13482;48.234;13.006;2023-05-07T06:31:17;2.53;;;2.13;;
25615;SDS011;13482;48.234;13.006;2023-05-07T06:33:49;2.95;;;2.25;;
25615;SDS011;13482;48.234;13.006;2023-05-07T06:36:16;2.63;;;2.13;;
25615;SDS011;13482;48.234;13.006;2023-05-07T06:38:43;2.58;;;2.25;;
25615;SDS011;13482;48.234;13.006;2023-05-07T06:41:10;2.97;;;1.95;;
25615;SDS011;13482;48.234;13.006;2023-05-07T06:43:37;3.10;;;2.15;;
25615;SDS011;13482;48.234;13.006;2023-05-07T06:46:04;2.90;;;2.05;;
25615;SDS011;13482;48.234;13.006;2023-05-07T06:48:32;2.40;;;1.98;;
25615;SDS011;13482;48.234;13.006;2023-05-07T06:50:59;11.63;;;9.80;;
25615;SDS011;13482;48.234;13.006;2023-05-07T06:53:26;2.58;;;2.25;;
25615;SDS011;13482;48.234;13.006;2023-05-07T06:55:54;2.58;;;2.00;;
25615;SDS011;13482;48.234;13.006;2023-05-07T06:58:21;3.70;;;2.30;;
25615;SDS011;13482;48.234;13.006;2023-05-07T07:00:49;2.10;;;1.88;;
25615;SDS011;13482;48.234;13.006;2023-05-07T07:03:16;3.00;;;2.53;;
25615;SDS011;13482;48.234;13.006;2023-05-07T07:05:43;2.00;;;1.80;;
25615;SDS011;13482;48.234;13.006;2023-05-07T07:08:10;3.00;;;2.20;;
25615;SDS011;13482;48.234;13.006;2023-05-07T07:10:37;2.45;;;2.00;;
25615;SDS011;13482;48.234;13.006;2023-05-07T07:13:04;2.63;;;2.05;;
25615;SDS011;13482;48.234;13.006;2023-05-07T07:15:31;2.33;;;1.75;;
25615;SDS011;13482;48.234;13.006;2023-05-07T07:17:58;2.78;;;1.75;;
25615;SDS011;13482;48.234;13.006;2023-05-07T07:20:25;2.70;;;1.90;;
25615;SDS011;13482;48.234;13.006;2023-05-07T07:22:53;2.60;;;1.75;;
25615;SDS011;13482;48.234;13.006;2023-05-07T07:25:20;2.30;;;1.92;;
25615;SDS011;13482;48.234;13.006;2023-05-07T07:27:47;1.92;;;1.70;;
25615;SDS011;13482;48.234;13.006;2023-05-07T07:30:14;2.33;;;1.63;;
25615;SDS011;13482;48.234;13.006;2023-05-07T07:32:41;2.47;;;1.73;;
25615;SDS011;13482;48.234;13.006;2023-05-07T07:35:09;2.20;;;1.80;;
25615;SDS011;13482;48.234;13.006;2023-05-07T07:37:36;2.38;;;1.88;;
25615;SDS011;13482;48.234;13.006;2023-05-07T07:40:03;2.17;;;1.40;;
25615;SDS011;13482;48.234;13.006;2023-05-07T07:42:31;2.42;;;1.67;;
25615;SDS011;13482;48.234;13.006;2023-05-07T07:44:58;2.80;;;1.70;;
25615;SDS011;13482;48.234;13.006;2023-05-07T07:47:26;1.98;;;1.48;;
25615;SDS011;13482;48.234;13.006;2023-05-07T07:49:53;2.78;;;1.60;;
25615;SDS011;13482;48.234;13.006;2023-05-07T07:52:20;2.60;;;1.65;;
25615;SDS011;13482;48.234;13.006;2023-05-07T07:54:47;2.15;;;1.40;;
25615;SDS011;13482;48.234;13.006;2023-05-07T07:57:14;2.17;;;1.55;;
25615;SDS011;13482;48.234;13.006;2023-05-07T07:59:41;2.08;;;1.70;;
25615;SDS011;13482;48.234;13.006;2023-05-07T08:02:09;2.28;;;1.55;;
25615;SDS011;13482;48.234;13.006;2023-05-07T08:04:36;1.85;;;1.40;;
25615;SDS011;13482;48.234;13.006;2023-05-07T08:07:04;2.13;;;1.60;;
25615;SDS011;13482;48.234;13.006;2023-05-07T08:09:32;1.88;;;1.30;;
25615;SDS011;13482;48.234;13.006;2023-05-07T08:11:59;1.48;;;1.20;;
25615;SDS011;13482;48.234;13.006;2023-05-07T08:14:27;2.80;;;1.20;;
25615;SDS011;13482;48.234;13.006;2023-05-07T08:16:54;1.80;;;1.20;;
25615;SDS011;13482;48.234;13.006;2023-05-07T08:19:22;2.05;;;1.40;;
25615;SDS011;13482;48.234;13.006;2023-05-07T08:21:49;1.55;;;1.30;;
25615;SDS011;13482;48.234;13.006;2023-05-07T08:24:17;1.75;;;1.30;;
25615;SDS011;13482;48.234;13.006;2023-05-07T08:26:44;1.85;;;1.40;;
25615;SDS011;13482;48.234;13.006;2023-05-07T08:29:13;2.30;;;1.58;;
25615;SDS011;13482;48.234;13.006;2023-05-07T08:31:40;2.05;;;1.35;;
25615;SDS011;13482;48.234;13.006;2023-05-07T08:34:07;1.63;;;1.10;;
25615;SDS011;13482;48.234;13.006;2023-05-07T08:36:35;2.25;;;1.13;;
25615;SDS011;13482;48.234;13.006;2023-05-07T08:39:02;2.30;;;1.35;;
25615;SDS011;13482;48.234;13.006;2023-05-07T08:41:30;5.95;;;1.30;;
25615;SDS011;13482;48.234;13.006;2023-05-07T08:43:57;1.50;;;1.02;;
25615;SDS011;13482;48.234;13.006;2023-05-07T08:46:30;2.33;;;1.45;;
25615;SDS011;13482;48.234;13.006;2023-05-07T08:48:58;1.70;;;1.20;;
25615;SDS011;13482;48.234;13.006;2023-05-07T08:51:26;1.92;;;1.48;;
25615;SDS011;13482;48.234;13.006;2023-05-07T08:53:53;2.00;;;1.27;;
25615;SDS011;13482;48.234;13.006;2023-05-07T08:56:20;1.50;;;1.10;;
25615;SDS011;13482;48.234;13.006;2023-05-07T08:58:48;1.60;;;1.20;;
25615;SDS011;13482;48.234;13.006;2023-05-07T09:01:16;1.80;;;1.30;;
25615;SDS011;13482;48.234;13.006;2023-05-07T09:03:44;1.83;;;1.25;;
25615;SDS011;13482;48.234;13.006;2023-05-07T09:06:13;1.50;;;1.10;;
25615;SDS011;13482;48.234;13.006;2023-05-07T09:08:43;2.40;;;1.40;;
25615;SDS011;13482;48.234;13.006;2023-05-07T09:11:21;1.60;;;1.45;;
25615;SDS011;13482;48.234;13.006;2023-05-07T09:13:53;1.33;;;1.15;;
25615;SDS011;13482;48.234;13.006;2023-05-07T09:16:22;1.95;;;1.55;;
25615;SDS011;13482;48.234;13.006;2023-05-07T09:18:52;2.20;;;1.42;;
25615;SDS011;13482;48.234;13.006;2023-05-07T09:21:21;1.60;;;1.20;;
25615;SDS011;13482;48.234;13.006;2023-05-07T09:23:53;2.10;;;1.20;;
25615;SDS011;13482;48.234;13.006;2023-05-07T09:26:21;1.98;;;1.50;;
25615;SDS011;13482;48.234;13.006;2023-05-07T09:28:50;2.10;;;1.42;;
25615;SDS011;13482;48.234;13.006;2023-05-07T09:31:18;1.60;;;1.40;;
25615;SDS011;13482;48.234;13.006;2023-05-07T09:33:47;2.00;;;1.30;;
25615;SDS011;13482;48.234;13.006;2023-05-07T09:36:14;1.70;;;1.35;;
25615;SDS011;13482;48.234;13.006;2023-05-07T09:38:41;2.40;;;1.70;;
25615;SDS011;13482;48.234;13.006;2023-05-07T09:41:09;2.45;;;1.40;;
25615;SDS011;13482;48.234;13.006;2023-05-07T09:43:39;4.45;;;3.38;;
25615;SDS011;13482;48.234;13.006;2023-05-07T09:46:13;3.38;;;1.67;;
25615;SDS011;13482;48.234;13.006;2023-05-07T09:48:43;2.53;;;1.80;;
25615;SDS011;13482;48.234;13.006;2023-05-07T09:54:01;2.20;;;1.70;;
25615;SDS011;13482;48.234;13.006;2023-05-07T09:56:30;2.20;;;1.70;;
25615;SDS011;13482;48.234;13.006;2023-05-07T09:59:00;2.00;;;1.60;;
25615;SDS011;13482;48.234;13.006;2023-05-07T10:01:30;2.17;;;1.55;;
25615;SDS011;13482;48.234;13.006;2023-05-07T10:03:58;3.30;;;1.52;;
25615;SDS011;13482;48.234;13.006;2023-05-07T10:06:28;2.00;;;1.80;;
25615;SDS011;13482;48.234;13.006;2023-05-07T10:08:56;2.20;;;1.90;;
25615;SDS011;13482;48.234;13.006;2023-05-07T10:11:24;2.22;;;1.80;;
25615;SDS011;13482;48.234;13.006;2023-05-07T10:13:52;2.33;;;1.75;;
25615;SDS011;13482;48.234;13.006;2023-05-07T10:16:20;2.47;;;1.98;;
25615;SDS011;13482;48.234;13.006;2023-05-07T10:18:48;3.10;;;2.15;;
25615;SDS011;13482;48.234;13.006;2023-05-07T10:21:18;3.22;;;2.03;;
25615;SDS011;13482;48.234;13.006;2023-05-07T10:23:51;3.03;;;2.10;;
25615;SDS011;13482;48.234;13.006;2023-05-07T10:26:27;2.40;;;1.83;;
25615;SDS011;13482;48.234;13.006;2023-05-07T10:28:58;2.83;;;2.00;;
25615;SDS011;13482;48.234;13.006;2023-05-07T10:34:15;2.20;;;1.80;;
25615;SDS011;13482;48.234;13.006;2023-05-07T10:36:48;2.63;;;1.85;;
25615;SDS011;13482;48.234;13.006;2023-05-07T10:39:16;2.25;;;1.67;;
25615;SDS011;13482;48.234;13.006;2023-05-07T10:41:44;2.47;;;1.88;;
25615;SDS011;13482;48.234;13.006;2023-05-07T10:44:11;2.72;;;1.70;;
25615;SDS011;13482;48.234;13.006;2023-05-07T10:47:10;2.05;;;1.65;;
25615;SDS011;13482;48.234;13.006;2023-05-07T10:52:13;1.83;;;1.48;;
25615;SDS011;13482;48.234;13.006;2023-05-07T10:57:43;2.15;;;1.80;;
25615;SDS011;13482;48.234;13.006;2023-05-07T11:03:04;2.47;;;1.50;;
25615;SDS011;13482;48.234;13.006;2023-05-07T11:05:33;1.85;;;1.45;;
25615;SDS011;13482;48.234;13.006;2023-05-07T11:08:04;1.80;;;1.30;;
25615;SDS011;13482;48.234;13.006;2023-05-07T11:10:47;2.30;;;1.42;;
25615;SDS011;13482;48.234;13.006;2023-05-07T11:13:41;1.45;;;1.10;;
25615;SDS011;13482;48.234;13.006;2023-05-07T11:18:52;1.98;;;1.40;;
25615;SDS011;13482;48.234;13.006;2023-05-07T11:21:36;2.15;;;1.23;;
25615;SDS011;13482;48.234;13.006;2023-05-07T11:24:09;1.75;;;1.40;;
25615;SDS011;13482;48.234;13.006;2023-05-07T11:26:44;1.88;;;1.20;;
25615;SDS011;13482;48.234;13.006;2023-05-07T11:29:18;1.30;;;1.08;;
25615;SDS011;13482;48.234;13.006;2023-05-07T11:31:52;2.92;;;1.20;;
25615;SDS011;13482;48.234;13.006;2023-05-07T11:34:21;1.60;;;1.00;;
25615;SDS011;13482;48.234;13.006;2023-05-07T11:36:50;1.20;;;1.00;;
25615;SDS011;13482;48.234;13.006;2023-05-07T11:39:25;0.90;;;0.73;;
25615;SDS011;13482;48.234;13.006;2023-05-07T11:42:02;1.23;;;0.93;;
25615;SDS011;13482;48.234;13.006;2023-05-07T11:44:42;1.67;;;1.00;;
25615;SDS011;13482;48.234;13.006;2023-05-07T11:47:20;1.85;;;1.10;;
25615;SDS011;13482;48.234;13.006;2023-05-07T11:49:48;0.90;;;0.70;;
25615;SDS011;13482;48.234;13.006;2023-05-07T11:52:17;1.08;;;0.80;;
25615;SDS011;13482;48.234;13.006;2023-05-07T11:54:55;1.17;;;0.80;;
25615;SDS011;13482;48.234;13.006;2023-05-07T11:57:24;1.27;;;0.90;;
25615;SDS011;13482;48.234;13.006;2023-05-07T11:59:58;1.25;;;0.82;;
25615;SDS011;13482;48.234;13.006;2023-05-07T12:02:30;1.50;;;0.98;;
25615;SDS011;13482;48.234;13.006;2023-05-07T12:05:00;1.48;;;0.90;;
25615;SDS011;13482;48.234;13.006;2023-05-07T12:07:28;1.30;;;1.02;;
25615;SDS011;13482;48.234;13.006;2023-05-07T12:09:56;1.23;;;0.93;;
25615;SDS011;13482;48.234;13.006;2023-05-07T12:12:23;1.73;;;0.90;;
25615;SDS011;13482;48.234;13.006;2023-05-07T12:14:50;1.60;;;1.00;;
25615;SDS011;13482;48.234;13.006;2023-05-07T12:17:18;2.05;;;1.30;;
25615;SDS011;13482;48.234;13.006;2023-05-07T12:19:45;1.73;;;1.10;;
25615;SDS011;13482;48.234;13.006;2023-05-07T12:22:13;2.47;;;1.08;;
25615;SDS011;13482;48.234;13.006;2023-05-07T12:24:44;2.67;;;1.63;;
25615;SDS011;13482;48.234;13.006;2023-05-07T12:27:22;1.50;;;1.00;;
25615;SDS011;13482;48.234;13.006;2023-05-07T12:29:50;1.58;;;1.00;;
25615;SDS011;13482;48.234;13.006;2023-05-07T12:32:17;1.67;;;0.98;;
25615;SDS011;13482;48.234;13.006;2023-05-07T12:34:49;1.00;;;0.90;;
25615;SDS011;13482;48.234;13.006;2023-05-07T12:37:22;1.00;;;0.80;;
25615;SDS011;13482;48.234;13.006;2023-05-07T12:40:06;1.63;;;0.80;;
25615;SDS011;13482;48.234;13.006;2023-05-07T12:42:36;1.52;;;0.90;;
25615;SDS011;13482;48.234;13.006;2023-05-07T12:45:07;1.52;;;0.80;;
25615;SDS011;13482;48.234;13.006;2023-05-07T12:47:36;1.00;;;0.70;;
25615;SDS011;13482;48.234;13.006;2023-05-07T12:50:07;1.00;;;0.80;;
25615;SDS011;13482;48.234;13.006;2023-05-07T12:52:34;1.65;;;0.82;;
25615;SDS011;13482;48.234;13.006;2023-05-07T12:55:05;1.10;;;0.80;;
25615;SDS011;13482;48.234;13.006;2023-05-07T12:57:38;1.10;;;0.80;;
25615;SDS011;13482;48.234;13.006;2023-05-07T13:00:06;1.52;;;0.90;;
25615;SDS011;13482;48.234;13.006;2023-05-07T13:02:38;1.48;;;0.88;;
25615;SDS011;13482;48.234;13.006;2023-05-07T13:05:08;1.08;;;0.70;;
25615;SDS011;13482;48.234;13.006;2023-05-07T13:07:35;1.05;;;0.60;;
25615;SDS011;13482;48.234;13.006;2023-05-07T13:10:03;0.68;;;0.50;;
25615;SDS011;13482;48.234;13.006;2023-05-07T13:12:32;1.15;;;0.60;;
25615;SDS011;13482;48.234;13.006;2023-05-07T13:14:59;0.95;;;0.70;;
25615;SDS011;13482;48.234;13.006;2023-05-07T13:17:26;1.27;;;0.80;;
25615;SDS011;13482;48.234;13.006;2023-05-07T13:19:53;0.77;;;0.68;;
25615;SDS011;13482;48.234;13.006;2023-05-07T13:22:20;1.15;;;0.65;;
25615;SDS011;13482;48.234;13.006;2023-05-07T13:24:47;1.20;;;0.70;;
25615;SDS011;13482;48.234;13.006;2023-05-07T13:27:14;1.30;;;0.90;;
25615;SDS011;13482;48.234;13.006;2023-05-07T13:29:42;0.85;;;0.70;;
25615;SDS011;13482;48.234;13.006;2023-05-07T13:32:09;0.63;;;0.52;;
25615;SDS011;13482;48.234;13.006;2023-05-07T13:34:36;1.95;;;0.77;;
25615;SDS011;13482;48.234;13.006;2023-05-07T13:37:03;1.48;;;0.88;;
25615;SDS011;13482;48.234;13.006;2023-05-07T13:39:31;1.02;;;0.70;;
25615;SDS011;13482;48.234;13.006;2023-05-07T13:41:58;1.00;;;0.70;;
25615;SDS011;13482;48.234;13.006;2023-05-07T13:44:26;0.73;;;0.63;;
25615;SDS011;13482;48.234;13.006;2023-05-07T13:46:53;1.05;;;0.70;;
25615;SDS011;13482;48.234;13.006;2023-05-07T13:49:20;1.95;;;0.75;;
25615;SDS011;13482;48.234;13.006;2023-05-07T13:51:47;1.02;;;0.80;;
25615;SDS011;13482;48.234;13.006;2023-05-07T13:54:14;1.02;;;0.70;;
25615;SDS011;13482;48.234;13.006;2023-05-07T13:56:42;1.20;;;0.75;;
25615;SDS011;13482;48.234;13.006;2023-05-07T13:59:09;0.82;;;0.57;;
25615;SDS011;13482;48.234;13.006;2023-05-07T14:01:36;0.75;;;0.60;;
25615;SDS011;13482;48.234;13.006;2023-05-07T14:04:03;0.80;;;0.50;;
25615;SDS011;13482;48.234;13.006;2023-05-07T14:06:30;0.43;;;0.40;;
25615;SDS011;13482;48.234;13.006;2023-05-07T14:08:58;0.70;;;0.50;;
25615;SDS011;13482;48.234;13.006;2023-05-07T14:11:26;0.95;;;0.70;;
25615;SDS011;13482;48.234;13.006;2023-05-07T14:13:53;0.73;;;0.50;;
25615;SDS011;13482;48.234;13.006;2023-05-07T14:16:20;1.23;;;0.70;;
25615;SDS011;13482;48.234;13.006;2023-05-07T14:18:47;0.75;;;0.52;;
25615;SDS011;13482;48.234;13.006;2023-05-07T14:21:15;0.85;;;0.45;;
25615;SDS011;13482;48.234;13.006;2023-05-07T14:23:42;1.10;;;0.70;;
25615;SDS011;13482;48.234;13.006;2023-05-07T14:26:09;1.15;;;0.70;;
25615;SDS011;13482;48.234;13.006;2023-05-07T14:28:36;1.13;;;0.60;;
25615;SDS011;13482;48.234;13.006;2023-05-07T14:31:05;0.80;;;0.50;;
25615;SDS011;13482;48.234;13.006;2023-05-07T14:33:33;0.80;;;0.55;;
25615;SDS011;13482;48.234;13.006;2023-05-07T14:36:00;1.38;;;0.70;;
25615;SDS011;13482;48.234;13.006;2023-05-07T14:38:27;1.15;;;0.52;;
25615;SDS011;13482;48.234;13.006;2023-05-07T14:40:54;0.65;;;0.50;;
25615;SDS011;13482;48.234;13.006;2023-05-07T14:43:22;0.85;;;0.45;;
25615;SDS011;13482;48.234;13.006;2023-05-07T14:45:49;0.68;;;0.47;;
25615;SDS011;13482;48.234;13.006;2023-05-07T14:48:16;0.63;;;0.50;;
25615;SDS011;13482;48.234;13.006;2023-05-07T14:50:47;1.15;;;0.52;;
25615;SDS011;13482;48.234;13.006;2023-05-07T14:53:15;1.08;;;0.70;;
25615;SDS011;13482;48.234;13.006;2023-05-07T14:55:42;0.80;;;0.50;;
25615;SDS011;13482;48.234;13.006;2023-05-07T14:58:10;0.80;;;0.63;;
25615;SDS011;13482;48.234;13.006;2023-05-07T15:00:37;1.95;;;0.70;;